Terminal Aerodrome Forecast
Issued by NWS

Home | Current Version | Previous Version | Text Only | Print | Product List | Glossary On
Versions: 1 2 3 4 5 6 7 8 9 10 11 12 13 14 15 16 17
000
FTUS45 KRIW 031121
TAFJAC
TAF
KJAC 031121Z 0312/0412 VRB06KT P6SM VCSH FEW080 BKN120
     FM031500 19011KT P6SM FEW090 SCT200
     FM031800 20015G25KT P6SM FEW080 BKN200
     FM040100 19009KT P6SM VCSH SCT080 BKN150
     FM040800 18007KT P6SM FEW100
      AMD LTD TO CLD VIS AND WIND=

USA.gov is the U.S. government's official web portal to all federal, state and local government web resources and services.